sensor_id;sensor_type;location;lat;lon;timestamp;pressure;altitude;pressure_sealevel;temperature
23992;BMP280;12205;50.600;4.608;2022-10-03T00:02:50;100913.59;;;9.54
23992;BMP280;12205;50.600;4.608;2022-10-03T00:05:38;100909.69;;;9.52
23992;BMP280;12205;50.600;4.608;2022-10-03T00:08:28;100917.22;;;9.50
23992;BMP280;12205;50.600;4.608;2022-10-03T00:11:08;100926.81;;;9.51
23992;BMP280;12205;50.600;4.608;2022-10-03T00:13:48;100923.88;;;9.44
23992;BMP280;12205;50.600;4.608;2022-10-03T00:16:23;100926.09;;;9.42
23992;BMP280;12205;50.600;4.608;2022-10-03T00:19:07;100938.06;;;9.35
23992;BMP280;12205;50.600;4.608;2022-10-03T00:22:01;100941.19;;;9.38
23992;BMP280;12205;50.600;4.608;2022-10-03T00:24:54;100931.00;;;9.40
23992;BMP280;12205;50.600;4.608;2022-10-03T00:27:37;100937.44;;;9.39
23992;BMP280;12205;50.600;4.608;2022-10-03T00:30:16;100940.28;;;9.33
23992;BMP280;12205;50.600;4.608;2022-10-03T00:33:10;100947.72;;;9.28
23992;BMP280;12205;50.600;4.608;2022-10-03T00:36:00;100929.50;;;9.30
23992;BMP280;12205;50.600;4.608;2022-10-03T00:38:59;100922.28;;;9.30
23992;BMP280;12205;50.600;4.608;2022-10-03T00:45:41;100924.69;;;9.23
23992;BMP280;12205;50.600;4.608;2022-10-03T00:48:52;100926.88;;;9.21
23992;BMP280;12205;50.600;4.608;2022-10-03T00:51:38;100931.47;;;9.21
23992;BMP280;12205;50.600;4.608;2022-10-03T00:54:29;100923.78;;;9.19
23992;BMP280;12205;50.600;4.608;2022-10-03T00:57:15;100932.88;;;9.18
23992;BMP280;12205;50.600;4.608;2022-10-03T01:00:13;100942.66;;;9.14
23992;BMP280;12205;50.600;4.608;2022-10-03T01:02:57;100944.38;;;9.10
23992;BMP280;12205;50.600;4.608;2022-10-03T01:05:41;100955.38;;;9.08
23992;BMP280;12205;50.600;4.608;2022-10-03T01:08:41;100961.81;;;9.07
23992;BMP280;12205;50.600;4.608;2022-10-03T01:11:24;100949.31;;;8.99
23992;BMP280;12205;50.600;4.608;2022-10-03T01:14:11;100956.38;;;9.04
23992;BMP280;12205;50.600;4.608;2022-10-03T01:17:00;100965.00;;;9.01
23992;BMP280;12205;50.600;4.608;2022-10-03T01:19:58;100959.84;;;8.95
23992;BMP280;12205;50.600;4.608;2022-10-03T01:26:00;100961.31;;;8.93
23992;BMP280;12205;50.600;4.608;2022-10-03T01:28:42;100952.50;;;8.92
23992;BMP280;12205;50.600;4.608;2022-10-03T01:31:39;100955.66;;;8.94
23992;BMP280;12205;50.600;4.608;2022-10-03T01:34:17;100963.66;;;8.94
23992;BMP280;12205;50.600;4.608;2022-10-03T01:37:03;100955.38;;;8.87
23992;BMP280;12205;50.600;4.608;2022-10-03T01:39:40;100961.34;;;8.84
23992;BMP280;12205;50.600;4.608;2022-10-03T01:42:16;100958.22;;;8.82
23992;BMP280;12205;50.600;4.608;2022-10-03T01:45:06;100946.47;;;8.83
23992;BMP280;12205;50.600;4.608;2022-10-03T01:47:45;100954.47;;;8.83
23992;BMP280;12205;50.600;4.608;2022-10-03T01:50:28;100950.69;;;8.84
23992;BMP280;12205;50.600;4.608;2022-10-03T01:53:03;100956.00;;;8.84
23992;BMP280;12205;50.600;4.608;2022-10-03T01:55:44;100951.44;;;8.85
23992;BMP280;12205;50.600;4.608;2022-10-03T01:58:24;100945.03;;;8.86
23992;BMP280;12205;50.600;4.608;2022-10-03T02:01:06;100937.78;;;8.86
23992;BMP280;12205;50.600;4.608;2022-10-03T02:03:44;100945.16;;;8.89
23992;BMP280;12205;50.600;4.608;2022-10-03T02:06:24;100949.38;;;8.90
23992;BMP280;12205;50.600;4.608;2022-10-03T02:09:05;100958.47;;;8.89
23992;BMP280;12205;50.600;4.608;2022-10-03T02:11:42;100953.31;;;8.93
23992;BMP280;12205;50.600;4.608;2022-10-03T02:14:21;100966.16;;;8.91
23992;BMP280;12205;50.600;4.608;2022-10-03T02:17:00;100955.38;;;8.87
23992;BMP280;12205;50.600;4.608;2022-10-03T02:19:35;100955.38;;;8.87
23992;BMP280;12205;50.600;4.608;2022-10-03T02:22:15;100968.13;;;8.82
23992;BMP280;12205;50.600;4.608;2022-10-03T02:24:50;100967.31;;;8.81
23992;BMP280;12205;50.600;4.608;2022-10-03T02:31:11;100948.03;;;8.75
23992;BMP280;12205;50.600;4.608;2022-10-03T02:34:14;100945.84;;;8.77
23992;BMP280;12205;50.600;4.608;2022-10-03T02:40:37;100950.28;;;8.65
23992;BMP280;12205;50.600;4.608;2022-10-03T02:43:55;100962.06;;;8.63
23992;BMP280;12205;50.600;4.608;2022-10-03T02:47:26;100953.47;;;8.58
23992;BMP280;12205;50.600;4.608;2022-10-03T02:51:06;100964.00;;;8.54
23992;BMP280;12205;50.600;4.608;2022-10-03T03:24:38;100986.16;;;8.37
23992;BMP280;12205;50.600;4.608;2022-10-03T03:27:27;100982.06;;;8.40
23992;BMP280;12205;50.600;4.608;2022-10-03T03:30:04;100987.25;;;8.36
23992;BMP280;12205;50.600;4.608;2022-10-03T03:32:52;100983.03;;;8.35
23992;BMP280;12205;50.600;4.608;2022-10-03T03:35:38;100999.16;;;8.39
23992;BMP280;12205;50.600;4.608;2022-10-03T03:38:27;101004.50;;;8.39
23992;BMP280;12205;50.600;4.608;2022-10-03T03:41:17;100991.63;;;8.41
23992;BMP280;12205;50.600;4.608;2022-10-03T03:44:12;100998.06;;;8.40
23992;BMP280;12205;50.600;4.608;2022-10-03T03:47:08;101005.09;;;8.36
23992;BMP280;12205;50.600;4.608;2022-10-03T03:50:07;101000.91;;;8.35
23992;BMP280;12205;50.600;4.608;2022-10-03T03:52:59;100994.00;;;8.34
23992;BMP280;12205;50.600;4.608;2022-10-03T03:56:04;100979.09;;;8.33
23992;BMP280;12205;50.600;4.608;2022-10-03T03:58:39;100973.78;;;8.33
23992;BMP280;12205;50.600;4.608;2022-10-03T04:01:55;100972.38;;;8.35
23992;BMP280;12205;50.600;4.608;2022-10-03T04:04:48;100964.06;;;8.37
23992;BMP280;12205;50.600;4.608;2022-10-03T04:07:42;100975.81;;;8.36
23992;BMP280;12205;50.600;4.608;2022-10-03T04:10:30;100982.25;;;8.35
23992;BMP280;12205;50.600;4.608;2022-10-03T04:13:28;100996.66;;;8.34
23992;BMP280;12205;50.600;4.608;2022-10-03T04:16:41;100995.09;;;8.33
23992;BMP280;12205;50.600;4.608;2022-10-03T04:19:40;101002.66;;;8.31
23992;BMP280;12205;50.600;4.608;2022-10-03T04:22:26;101008.13;;;8.25
23992;BMP280;12205;50.600;4.608;2022-10-03T04:25:18;100994.81;;;8.25
23992;BMP280;12205;50.600;4.608;2022-10-03T04:28:07;100989.47;;;8.25
23992;BMP280;12205;50.600;4.608;2022-10-03T04:30:56;100994.81;;;8.25
23992;BMP280;12205;50.600;4.608;2022-10-03T04:33:37;100994.31;;;8.23
23992;BMP280;12205;50.600;4.608;2022-10-03T04:36:48;101007.63;;;8.23
23992;BMP280;12205;50.600;4.608;2022-10-03T04:39:31;101018.94;;;8.20
23992;BMP280;12205;50.600;4.608;2022-10-03T04:42:12;101002.03;;;8.16
23992;BMP280;12205;50.600;4.608;2022-10-03T04:45:06;101004.38;;;8.18
23992;BMP280;12205;50.600;4.608;2022-10-03T04:47:47;101005.78;;;8.15
23992;BMP280;12205;50.600;4.608;2022-10-03T04:50:36;101020.06;;;8.11
23992;BMP280;12205;50.600;4.608;2022-10-03T04:53:28;101017.06;;;8.12
23992;BMP280;12205;50.600;4.608;2022-10-03T04:56:22;101015.53;;;8.11
23992;BMP280;12205;50.600;4.608;2022-10-03T04:59:03;101020.53;;;8.04
23992;BMP280;12205;50.600;4.608;2022-10-03T05:01:44;101022.09;;;8.05
23992;BMP280;12205;50.600;4.608;2022-10-03T05:04:29;101018.66;;;8.04
23992;BMP280;12205;50.600;4.608;2022-10-03T05:07:05;101015.19;;;8.04
23992;BMP280;12205;50.600;4.608;2022-10-03T05:09:44;101006.44;;;8.03
23992;BMP280;12205;50.600;4.608;2022-10-03T05:12:27;100986.25;;;7.94
23992;BMP280;12205;50.600;4.608;2022-10-03T05:15:13;100991.56;;;8.02
23992;BMP280;12205;50.600;4.608;2022-10-03T05:17:57;100995.31;;;8.01
23992;BMP280;12205;50.600;4.608;2022-10-03T05:20:44;100980.75;;;7.99
23992;BMP280;12205;50.600;4.608;2022-10-03T05:23:28;100979.22;;;7.98
23992;BMP280;12205;50.600;4.608;2022-10-03T05:26:07;100984.06;;;7.96
23992;BMP280;12205;50.600;4.608;2022-10-03T05:28:47;100985.16;;;7.95
23992;BMP280;12205;50.600;4.608;2022-10-03T05:31:34;100982.97;;;7.97
23992;BMP280;12205;50.600;4.608;2022-10-03T05:34:33;100993.00;;;8.00
23992;BMP280;12205;50.600;4.608;2022-10-03T05:37:28;101011.16;;;7.98
23992;BMP280;12205;50.600;4.608;2022-10-03T05:40:06;101015.53;;;7.94
23992;BMP280;12205;50.600;4.608;2022-10-03T05:43:08;101018.66;;;7.96
23992;BMP280;12205;50.600;4.608;2022-10-03T05:45:48;101013.34;;;7.96
23992;BMP280;12205;50.600;4.608;2022-10-03T05:48:31;101004.91;;;7.94
23992;BMP280;12205;50.600;4.608;2022-10-03T05:51:41;101004.91;;;7.94
23992;BMP280;12205;50.600;4.608;2022-10-03T05:54:48;101017.72;;;7.92
23992;BMP280;12205;50.600;4.608;2022-10-03T05:58:01;101011.94;;;7.89
23992;BMP280;12205;50.600;4.608;2022-10-03T06:00:55;101008.97;;;7.82
23992;BMP280;12205;50.600;4.608;2022-10-03T06:03:59;101016.63;;;7.93
23992;BMP280;12205;50.600;4.608;2022-10-03T06:06:43;101017.09;;;7.95
23992;BMP280;12205;50.600;4.608;2022-10-03T06:09:50;100995.78;;;7.95
23992;BMP280;12205;50.600;4.608;2022-10-03T06:12:31;101007.38;;;7.99
23992;BMP280;12205;50.600;4.608;2022-10-03T06:15:46;101011.16;;;7.98
23992;BMP280;12205;50.600;4.608;2022-10-03T06:22:33;101016.59;;;8.01
23992;BMP280;12205;50.600;4.608;2022-10-03T06:25:52;101016.16;;;8.08
23992;BMP280;12205;50.600;4.608;2022-10-03T06:28:58;101005.63;;;8.12
23992;BMP280;12205;50.600;4.608;2022-10-03T06:32:11;101012.06;;;8.19
23992;BMP280;12205;50.600;4.608;2022-10-03T06:35:21;101007.63;;;8.23
23992;BMP280;12205;50.600;4.608;2022-10-03T06:44:45;100983.78;;;8.36
23992;BMP280;12205;50.600;4.608;2022-10-03T06:47:26;100992.53;;;8.45
23992;BMP280;12205;50.600;4.608;2022-10-03T06:50:34;100993.47;;;8.49
23992;BMP280;12205;50.600;4.608;2022-10-03T06:53:44;100980.75;;;8.55
23992;BMP280;12205;50.600;4.608;2022-10-03T07:00:13;100987.28;;;8.66
23992;BMP280;12205;50.600;4.608;2022-10-03T07:03:19;100978.34;;;8.71
23992;BMP280;12205;50.600;4.608;2022-10-03T07:06:11;100971.63;;;8.73
23992;BMP280;12205;50.600;4.608;2022-10-03T07:15:46;100954.06;;;8.93
23992;BMP280;12205;50.600;4.608;2022-10-03T07:23:03;100933.53;;;9.15
23992;BMP280;12205;50.600;4.608;2022-10-03T07:39:26;100859.09;;;9.68
23992;BMP280;12205;50.600;4.608;2022-10-03T07:42:35;100848.56;;;9.84
23992;BMP280;12205;50.600;4.608;2022-10-03T07:45:39;100834.09;;;9.97
23992;BMP280;12205;50.600;4.608;2022-10-03T07:48:54;100825.31;;;10.09
23992;BMP280;12205;50.600;4.608;2022-10-03T07:51:35;100812.72;;;10.22
23992;BMP280;12205;50.600;4.608;2022-10-03T07:54:35;100803.88;;;10.34
23992;BMP280;12205;50.600;4.608;2022-10-03T07:57:31;100788.19;;;10.44
23992;BMP280;12205;50.600;4.608;2022-10-03T08:00:25;100777.00;;;10.55
23992;BMP280;12205;50.600;4.608;2022-10-03T08:03:42;100765.84;;;10.65
23992;BMP280;12205;50.600;4.608;2022-10-03T08:06:41;100763.09;;;10.77
23992;BMP280;12205;50.600;4.608;2022-10-03T08:09:46;100765.72;;;10.90
23992;BMP280;12205;50.600;4.608;2022-10-03T08:12:56;100753.81;;;11.03
23992;BMP280;12205;50.600;4.608;2022-10-03T08:15:45;100746.41;;;11.12
23992;BMP280;12205;50.600;4.608;2022-10-03T08:19:18;100749.88;;;11.29
23992;BMP280;12205;50.600;4.608;2022-10-03T08:22:04;100760.81;;;11.39
23992;BMP280;12205;50.600;4.608;2022-10-03T08:25:07;100755.72;;;11.50
23992;BMP280;12205;50.600;4.608;2022-10-03T08:28:12;100760.53;;;11.61
23992;BMP280;12205;50.600;4.608;2022-10-03T08:34:16;100781.75;;;11.85
23992;BMP280;12205;50.600;4.608;2022-10-03T08:37:21;100791.91;;;11.95
23992;BMP280;12205;50.600;4.608;2022-10-03T08:40:32;100786.44;;;12.08
23992;BMP280;12205;50.600;4.608;2022-10-03T08:43:48;100785.13;;;12.18
23992;BMP280;12205;50.600;4.608;2022-10-03T08:46:58;100792.97;;;12.26
23992;BMP280;12205;50.600;4.608;2022-10-03T08:50:12;100802.34;;;12.36
23992;BMP280;12205;50.600;4.608;2022-10-03T08:53:07;100799.44;;;12.45
23992;BMP280;12205;50.600;4.608;2022-10-03T08:55:47;100804.69;;;12.57
23992;BMP280;12205;50.600;4.608;2022-10-03T08:59:14;100787.31;;;12.71
23992;BMP280;12205;50.600;4.608;2022-10-03T09:02:35;100788.97;;;12.79
23992;BMP280;12205;50.600;4.608;2022-10-03T09:05:33;100824.41;;;12.88
23992;BMP280;12205;50.600;4.608;2022-10-03T09:09:02;100848.25;;;12.93
23992;BMP280;12205;50.600;4.608;2022-10-03T09:12:16;100857.56;;;12.99
23992;BMP280;12205;50.600;4.608;2022-10-03T09:15:04;100856.56;;;13.07
23992;BMP280;12205;50.600;4.608;2022-10-03T09:18:17;100848.28;;;13.16
23992;BMP280;12205;50.600;4.608;2022-10-03T09:38:38;100829.38;;;14.12
23992;BMP280;12205;50.600;4.608;2022-10-03T09:58:46;100959.75;;;15.20
23992;BMP280;12205;50.600;4.608;2022-10-03T10:01:29;100999.78;;;15.18
23992;BMP280;12205;50.600;4.608;2022-10-03T10:04:49;101003.72;;;15.28
23992;BMP280;12205;50.600;4.608;2022-10-03T10:07:54;100993.75;;;15.32
23992;BMP280;12205;50.600;4.608;2022-10-03T10:14:24;101026.94;;;15.40
23992;BMP280;12205;50.600;4.608;2022-10-03T10:17:49;101045.47;;;15.45
23992;BMP280;12205;50.600;4.608;2022-10-03T10:21:02;101057.88;;;15.53
23992;BMP280;12205;50.600;4.608;2022-10-03T10:23:47;101069.53;;;15.64
23992;BMP280;12205;50.600;4.608;2022-10-03T10:27:12;101073.91;;;15.76
23992;BMP280;12205;50.600;4.608;2022-10-03T10:30:07;101068.53;;;15.80
23992;BMP280;12205;50.600;4.608;2022-10-03T10:33:18;101075.94;;;15.90
23992;BMP280;12205;50.600;4.608;2022-10-03T11:49:54;101342.78;;;18.17
23992;BMP280;12205;50.600;4.608;2022-10-03T11:56:42;101356.78;;;18.65
23992;BMP280;12205;50.600;4.608;2022-10-03T11:59:33;101364.94;;;18.83
23992;BMP280;12205;50.600;4.608;2022-10-03T12:02:15;101392.44;;;19.07
23992;BMP280;12205;50.600;4.608;2022-10-03T12:04:57;101385.84;;;19.30
23992;BMP280;12205;50.600;4.608;2022-10-03T12:07:43;101393.13;;;19.58
23992;BMP280;12205;50.600;4.608;2022-10-03T12:10:40;101419.78;;;19.95
23992;BMP280;12205;50.600;4.608;2022-10-03T12:13:16;101415.25;;;20.44
23992;BMP280;12205;50.600;4.608;2022-10-03T12:15:48;101436.50;;;21.13
23992;BMP280;12205;50.600;4.608;2022-10-03T12:18:27;101426.78;;;21.53
23992;BMP280;12205;50.600;4.608;2022-10-03T12:21:09;101429.00;;;21.93
23992;BMP280;12205;50.600;4.608;2022-10-03T12:23:57;101427.81;;;22.99
23992;BMP280;12205;50.600;4.608;2022-10-03T12:26:43;101431.88;;;23.70
23992;BMP280;12205;50.600;4.608;2022-10-03T12:29:18;101428.25;;;23.57
23992;BMP280;12205;50.600;4.608;2022-10-03T12:32:03;101428.22;;;24.13
23992;BMP280;12205;50.600;4.608;2022-10-03T12:34:38;101424.06;;;25.29
23992;BMP280;12205;50.600;4.608;2022-10-03T12:37:31;101424.03;;;26.10
23992;BMP280;12205;50.600;4.608;2022-10-03T12:40:05;101434.66;;;26.90
23992;BMP280;12205;50.600;4.608;2022-10-03T12:42:46;101428.97;;;27.06
23992;BMP280;12205;50.600;4.608;2022-10-03T12:45:23;101431.47;;;26.70
23992;BMP280;12205;50.600;4.608;2022-10-03T12:48:03;101420.47;;;26.92
23992;BMP280;12205;50.600;4.608;2022-10-03T12:50:45;101414.94;;;27.76
23992;BMP280;12205;50.600;4.608;2022-10-03T12:53:32;101413.78;;;28.60
23992;BMP280;12205;50.600;4.608;2022-10-03T12:56:15;101407.50;;;29.30
23992;BMP280;12205;50.600;4.608;2022-10-03T12:59:11;101408.34;;;29.78
23992;BMP280;12205;50.600;4.608;2022-10-03T13:02:21;101405.63;;;30.32
23992;BMP280;12205;50.600;4.608;2022-10-03T13:05:23;101409.75;;;30.81
23992;BMP280;12205;50.600;4.608;2022-10-03T13:07:54;101403.47;;;31.16
23992;BMP280;12205;50.600;4.608;2022-10-03T13:10:36;101406.28;;;31.57
23992;BMP280;12205;50.600;4.608;2022-10-03T13:13:24;101408.53;;;31.17
23992;BMP280;12205;50.600;4.608;2022-10-03T13:16:17;101406.56;;;31.59
23992;BMP280;12205;50.600;4.608;2022-10-03T13:18:55;101412.16;;;31.85
23992;BMP280;12205;50.600;4.608;2022-10-03T13:21:46;101412.38;;;32.02
23992;BMP280;12205;50.600;4.608;2022-10-03T13:24:29;101412.72;;;32.15
23992;BMP280;12205;50.600;4.608;2022-10-03T13:27:10;101405.69;;;32.40
23992;BMP280;12205;50.600;4.608;2022-10-03T13:29:46;101400.19;;;32.78
23992;BMP280;12205;50.600;4.608;2022-10-03T13:32:24;101397.09;;;33.07
23992;BMP280;12205;50.600;4.608;2022-10-03T13:35:16;101400.72;;;33.25
23992;BMP280;12205;50.600;4.608;2022-10-03T13:38:22;101390.19;;;32.86
23992;BMP280;12205;50.600;4.608;2022-10-03T13:41:07;101388.25;;;32.08
23992;BMP280;12205;50.600;4.608;2022-10-03T13:43:43;101392.00;;;31.23
23992;BMP280;12205;50.600;4.608;2022-10-03T13:46:17;101390.56;;;30.33
23992;BMP280;12205;50.600;4.608;2022-10-03T13:48:57;101388.25;;;29.54
23992;BMP280;12205;50.600;4.608;2022-10-03T13:51:38;101380.75;;;28.78
23992;BMP280;12205;50.600;4.608;2022-10-03T13:54:16;101383.84;;;28.25
23992;BMP280;12205;50.600;4.608;2022-10-03T13:56:53;101376.44;;;27.67
23992;BMP280;12205;50.600;4.608;2022-10-03T13:59:53;101382.75;;;27.36
23992;BMP280;12205;50.600;4.608;2022-10-03T14:02:50;101374.94;;;27.03
23992;BMP280;12205;50.600;4.608;2022-10-03T14:05:44;101374.78;;;26.76
23992;BMP280;12205;50.600;4.608;2022-10-03T14:08:31;101378.41;;;26.38
23992;BMP280;12205;50.600;4.608;2022-10-03T14:11:22;101375.50;;;25.85
23992;BMP280;12205;50.600;4.608;2022-10-03T14:14:22;101370.25;;;25.52
23992;BMP280;12205;50.600;4.608;2022-10-03T14:16:59;101357.59;;;25.29
23992;BMP280;12205;50.600;4.608;2022-10-03T14:19:39;101353.09;;;24.97
23992;BMP280;12205;50.600;4.608;2022-10-03T14:22:33;101361.63;;;24.69
23992;BMP280;12205;50.600;4.608;2022-10-03T14:25:19;101348.75;;;24.53
23992;BMP280;12205;50.600;4.608;2022-10-03T14:27:56;101348.34;;;24.39
23992;BMP280;12205;50.600;4.608;2022-10-03T14:30:34;101352.19;;;24.08
23992;BMP280;12205;50.600;4.608;2022-10-03T14:33:19;101342.09;;;23.89
23992;BMP280;12205;50.600;4.608;2022-10-03T14:36:03;101341.59;;;23.78
23992;BMP280;12205;50.600;4.608;2022-10-03T14:38:53;101339.88;;;23.67
23992;BMP280;12205;50.600;4.608;2022-10-03T14:41:43;101330.44;;;23.52
23992;BMP280;12205;50.600;4.608;2022-10-03T14:44:16;101336.53;;;23.40
23992;BMP280;12205;50.600;4.608;2022-10-03T14:46:51;101328.91;;;23.35
23992;BMP280;12205;50.600;4.608;2022-10-03T14:49:25;101324.53;;;23.37
23992;BMP280;12205;50.600;4.608;2022-10-03T14:52:00;101320.72;;;23.51
23992;BMP280;12205;50.600;4.608;2022-10-03T14:54:30;101329.63;;;23.55
23992;BMP280;12205;50.600;4.608;2022-10-03T14:57:33;101319.06;;;23.90
23992;BMP280;12205;50.600;4.608;2022-10-03T15:00:04;101314.72;;;24.09
23992;BMP280;12205;50.600;4.608;2022-10-03T15:02:35;101315.69;;;24.02
23992;BMP280;12205;50.600;4.608;2022-10-03T15:05:11;101292.09;;;23.76
23992;BMP280;12205;50.600;4.608;2022-10-03T15:07:43;101303.34;;;23.61
23992;BMP280;12205;50.600;4.608;2022-10-03T15:10:17;101290.31;;;23.33
23992;BMP280;12205;50.600;4.608;2022-10-03T15:12:53;101299.00;;;23.27
23992;BMP280;12205;50.600;4.608;2022-10-03T15:15:26;101297.31;;;23.14
23992;BMP280;12205;50.600;4.608;2022-10-03T15:17:55;101296.09;;;23.18
23992;BMP280;12205;50.600;4.608;2022-10-03T15:20:27;101287.75;;;23.25
23992;BMP280;12205;50.600;4.608;2022-10-03T15:22:59;101285.75;;;23.62
23992;BMP280;12205;50.600;4.608;2022-10-03T15:25:33;101288.88;;;23.81
23992;BMP280;12205;50.600;4.608;2022-10-03T15:28:07;101291.56;;;23.97
23992;BMP280;12205;50.600;4.608;2022-10-03T15:30:38;101283.03;;;24.28
23992;BMP280;12205;50.600;4.608;2022-10-03T15:33:16;101280.06;;;24.51
23992;BMP280;12205;50.600;4.608;2022-10-03T15:35:50;101282.81;;;25.06
23992;BMP280;12205;50.600;4.608;2022-10-03T15:38:24;101279.63;;;25.94
23992;BMP280;12205;50.600;4.608;2022-10-03T15:41:06;101275.25;;;26.53
23992;BMP280;12205;50.600;4.608;2022-10-03T15:43:43;101282.31;;;27.26
23992;BMP280;12205;50.600;4.608;2022-10-03T15:46:28;101275.38;;;27.89
23992;BMP280;12205;50.600;4.608;2022-10-03T15:49:00;101274.00;;;28.03
23992;BMP280;12205;50.600;4.608;2022-10-03T15:51:31;101268.97;;;27.74
23992;BMP280;12205;50.600;4.608;2022-10-03T15:54:06;101265.84;;;27.35
23992;BMP280;12205;50.600;4.608;2022-10-03T15:56:40;101261.34;;;27.10
23992;BMP280;12205;50.600;4.608;2022-10-03T15:59:22;101257.47;;;26.89
23992;BMP280;12205;50.600;4.608;2022-10-03T16:01:54;101252.78;;;26.68
23992;BMP280;12205;50.600;4.608;2022-10-03T16:04:25;101248.69;;;26.41
23992;BMP280;12205;50.600;4.608;2022-10-03T16:07:01;101243.34;;;26.03
23992;BMP280;12205;50.600;4.608;2022-10-03T16:09:49;101237.13;;;25.54
23992;BMP280;12205;50.600;4.608;2022-10-03T16:12:47;101245.78;;;25.02
23992;BMP280;12205;50.600;4.608;2022-10-03T16:15:24;101254.53;;;24.71
23992;BMP280;12205;50.600;4.608;2022-10-03T16:17:59;101242.25;;;24.33
23992;BMP280;12205;50.600;4.608;2022-10-03T16:20:34;101247.69;;;24.04
23992;BMP280;12205;50.600;4.608;2022-10-03T16:23:14;101254.91;;;23.65
23992;BMP280;12205;50.600;4.608;2022-10-03T16:25:47;101243.38;;;23.21
23992;BMP280;12205;50.600;4.608;2022-10-03T16:28:19;101238.75;;;22.82
23992;BMP280;12205;50.600;4.608;2022-10-03T16:30:55;101242.56;;;22.44
23992;BMP280;12205;50.600;4.608;2022-10-03T16:33:28;101243.94;;;22.09
23992;BMP280;12205;50.600;4.608;2022-10-03T16:36:00;101232.03;;;21.76
23992;BMP280;12205;50.600;4.608;2022-10-03T16:38:33;101226.25;;;21.46
23992;BMP280;12205;50.600;4.608;2022-10-03T16:41:20;101219.31;;;21.11
23992;BMP280;12205;50.600;4.608;2022-10-03T16:43:56;101225.53;;;20.77
23992;BMP280;12205;50.600;4.608;2022-10-03T16:46:30;101221.19;;;20.45
23992;BMP280;12205;50.600;4.608;2022-10-03T16:49:02;101226.53;;;20.15
23992;BMP280;12205;50.600;4.608;2022-10-03T16:51:59;101211.72;;;19.71
23992;BMP280;12205;50.600;4.608;2022-10-03T16:54:28;101220.28;;;19.58
23992;BMP280;12205;50.600;4.608;2022-10-03T16:57:02;101211.53;;;19.25
23992;BMP280;12205;50.600;4.608;2022-10-03T16:59:32;101215.06;;;19.08
23992;BMP280;12205;50.600;4.608;2022-10-03T17:02:04;101219.03;;;18.82
23992;BMP280;12205;50.600;4.608;2022-10-03T17:04:36;101218.69;;;18.62
23992;BMP280;12205;50.600;4.608;2022-10-03T17:07:12;101212.88;;;18.45
23992;BMP280;12205;50.600;4.608;2022-10-03T17:09:45;101205.16;;;18.26
23992;BMP280;12205;50.600;4.608;2022-10-03T17:12:17;101197.81;;;18.01
23992;BMP280;12205;50.600;4.608;2022-10-03T17:14:47;101194.66;;;17.81
23992;BMP280;12205;50.600;4.608;2022-10-03T17:17:27;101191.13;;;17.59
23992;BMP280;12205;50.600;4.608;2022-10-03T17:20:01;101192.59;;;17.39
23992;BMP280;12205;50.600;4.608;2022-10-03T17:22:36;101179.78;;;17.21
23992;BMP280;12205;50.600;4.608;2022-10-03T17:25:07;101174.66;;;17.02
23992;BMP280;12205;50.600;4.608;2022-10-03T17:27:55;101168.41;;;16.83
23992;BMP280;12205;50.600;4.608;2022-10-03T17:30:33;101161.34;;;16.68
23992;BMP280;12205;50.600;4.608;2022-10-03T17:33:12;101165.09;;;16.52
23992;BMP280;12205;50.600;4.608;2022-10-03T17:35:50;101169.22;;;16.39
23992;BMP280;12205;50.600;4.608;2022-10-03T17:38:29;101176.38;;;16.21
23992;BMP280;12205;50.600;4.608;2022-10-03T17:41:13;101158.50;;;16.02
23992;BMP280;12205;50.600;4.608;2022-10-03T17:43:47;101137.94;;;15.90
23992;BMP280;12205;50.600;4.608;2022-10-03T17:46:23;101137.06;;;15.79
23992;BMP280;12205;50.600;4.608;2022-10-03T17:49:04;101142.00;;;15.69
23992;BMP280;12205;50.600;4.608;2022-10-03T17:51:36;101123.38;;;15.57
23992;BMP280;12205;50.600;4.608;2022-10-03T17:54:09;101117.84;;;15.46
23992;BMP280;12205;50.600;4.608;2022-10-03T17:56:43;101119.97;;;15.30
23992;BMP280;12205;50.600;4.608;2022-10-03T17:59:18;101118.31;;;15.18
23992;BMP280;12205;50.600;4.608;2022-10-03T18:01:52;101102.06;;;15.11
23992;BMP280;12205;50.600;4.608;2022-10-03T18:04:32;101098.47;;;15.03
23992;BMP280;12205;50.600;4.608;2022-10-03T18:07:07;101091.00;;;14.89
23992;BMP280;12205;50.600;4.608;2022-10-03T18:09:42;101094.72;;;14.81
23992;BMP280;12205;50.600;4.608;2022-10-03T18:12:21;101087.97;;;14.68
23992;BMP280;12205;50.600;4.608;2022-10-03T18:15:35;101095.53;;;14.58
23992;BMP280;12205;50.600;4.608;2022-10-03T18:21:37;101068.00;;;14.42
23992;BMP280;12205;50.600;4.608;2022-10-03T18:24:51;101069.38;;;14.32
23992;BMP280;12205;50.600;4.608;2022-10-03T18:27:53;101072.25;;;14.20
23992;BMP280;12205;50.600;4.608;2022-10-03T18:30:31;101066.75;;;14.13
23992;BMP280;12205;50.600;4.608;2022-10-03T18:33:04;101055.91;;;14.06
23992;BMP280;12205;50.600;4.608;2022-10-03T18:35:34;101055.84;;;14.02
23992;BMP280;12205;50.600;4.608;2022-10-03T18:38:12;101016.28;;;13.79
23992;BMP280;12205;50.600;4.608;2022-10-03T18:40:45;101039.47;;;13.88
23992;BMP280;12205;50.600;4.608;2022-10-03T18:43:28;101044.72;;;13.80
23992;BMP280;12205;50.600;4.608;2022-10-03T18:46:16;101035.38;;;13.74
23992;BMP280;12205;50.600;4.608;2022-10-03T18:48:54;101026.06;;;13.68
23992;BMP280;12205;50.600;4.608;2022-10-03T18:51:30;101031.31;;;13.61
23992;BMP280;12205;50.600;4.608;2022-10-03T18:54:08;101024.31;;;13.56
23992;BMP280;12205;50.600;4.608;2022-10-03T18:56:42;101021.94;;;13.51
23992;BMP280;12205;50.600;4.608;2022-10-03T18:59:23;101020.28;;;13.47
23992;BMP280;12205;50.600;4.608;2022-10-03T19:01:58;101014.09;;;13.42
23992;BMP280;12205;50.600;4.608;2022-10-03T19:04:49;101017.06;;;13.37
23992;BMP280;12205;50.600;4.608;2022-10-03T19:07:21;101017.75;;;13.34
23992;BMP280;12205;50.600;4.608;2022-10-03T19:10:23;101021.53;;;13.30
23992;BMP280;12205;50.600;4.608;2022-10-03T19:13:02;101004.34;;;13.15
23992;BMP280;12205;50.600;4.608;2022-10-03T19:15:45;101016.69;;;13.19
23992;BMP280;12205;50.600;4.608;2022-10-03T19:18:22;101026.28;;;13.17
23992;BMP280;12205;50.600;4.608;2022-10-03T19:20:58;101031.97;;;13.15
23992;BMP280;12205;50.600;4.608;2022-10-03T19:23:33;101025.75;;;13.11